Time;durP1;ratioP1;P1;durP2;ratioP2;P2;SDS_P1;SDS_P2;PMS_P1;PMS_P2;Temp;Humidity;BMP_temperature;BMP_pressure;BME280_temperature;BME280_humidity;BME280_pressure;Samples;Min_cycle;Max_cycle;Signal;HPM_P1;HPM_P2
2023/09/03 00:01:45;;;;;;;14.00;10.47;;;18.10;99.90;;;;;;5060452;28;20463;-62
2023/09/03 00:04:14;;;;;;;9.10;8.13;;;18.10;99.90;;;;;;5060726;28;20466;-62
2023/09/03 00:06:42;;;;;;;13.33;10.07;;;18.10;99.90;;;;;;5059238;28;20494;-64
2023/09/03 00:09:09;;;;;;;11.87;10.23;;;18.10;99.90;;;;;;5055944;28;20565;-61
2023/09/03 00:11:36;;;;;;;10.87;8.37;;;18.10;99.90;;;;;;5055131;28;20499;-61
2023/09/03 00:14:03;;;;;;;13.93;9.33;;;18.10;99.90;;;;;;5055334;28;20474;-62
2023/09/03 00:16:30;;;;;;;10.00;8.37;;;18.10;99.90;;;;;;5055381;28;20530;-61
2023/09/03 00:18:57;;;;;;;11.43;10.23;;;18.10;99.90;;;;;;5055355;28;20486;-61
2023/09/03 00:21:25;;;;;;;11.50;8.87;;;18.10;99.90;;;;;;5055454;28;20443;-61
2023/09/03 00:23:52;;;;;;;11.13;9.30;;;18.20;99.90;;;;;;5057509;28;20495;-62
2023/09/03 00:26:21;;;;;;;13.70;9.27;;;18.20;99.90;;;;;;5056869;28;20508;-62
2023/09/03 00:28:50;;;;;;;11.27;9.40;;;18.20;99.90;;;;;;5056670;28;20478;-64
2023/09/03 00:31:17;;;;;;;10.60;9.50;;;18.20;99.90;;;;;;5057613;28;20556;-63
2023/09/03 00:33:44;;;;;;;11.37;9.87;;;18.20;99.90;;;;;;5057914;28;20524;-62
2023/09/03 00:36:13;;;;;;;11.93;8.93;;;18.20;99.90;;;;;;5058874;28;20534;-61
2023/09/03 00:38:41;;;;;;;10.37;9.37;;;18.20;99.90;;;;;;5063741;28;20485;-63
2023/09/03 00:41:08;;;;;;;11.00;9.30;;;18.20;99.90;;;;;;5061238;28;20485;-62
2023/09/03 00:43:35;;;;;;;12.10;10.47;;;18.20;99.90;;;;;;5057825;28;20443;-62
2023/09/03 00:46:04;;;;;;;11.40;9.17;;;18.20;99.90;;;;;;5057422;28;20482;-61
2023/09/03 00:48:31;;;;;;;12.67;10.13;;;18.10;99.90;;;;;;5061810;28;20443;-63
2023/09/03 00:51:02;;;;;;;13.40;9.23;;;18.20;99.90;;;;;;5063558;28;20498;-63
2023/09/03 00:53:31;;;;;;;10.53;9.07;;;18.20;99.90;;;;;;5062879;28;20419;-63
2023/09/03 00:55:59;;;;;;;14.70;10.30;;;18.10;99.90;;;;;;5059092;28;20454;-63
2023/09/03 00:58:28;;;;;;;20.80;10.63;;;18.10;99.90;;;;;;5059423;28;20491;-64
2023/09/03 01:00:55;;;;;;;13.23;10.90;;;18.10;99.90;;;;;;5057663;28;20443;-62
2023/09/03 01:03:25;;;;;;;12.33;11.03;;;18.10;99.90;;;;;;5057232;28;20557;-61
2023/09/03 01:05:52;;;;;;;19.30;11.17;;;18.10;99.90;;;;;;5057084;28;20941;-63
2023/09/03 01:08:19;;;;;;;13.43;10.20;;;18.10;99.90;;;;;;5062864;28;20474;-63
2023/09/03 01:10:55;;;;;;;13.37;10.63;;;18.10;99.90;;;;;;5066705;28;20858;-63
2023/09/03 01:13:28;;;;;;;16.67;10.40;;;18.10;99.90;;;;;;5063839;28;20490;-63
2023/09/03 01:15:59;;;;;;;17.47;11.40;;;18.10;99.90;;;;;;5059122;28;20432;-62
2023/09/03 01:18:29;;;;;;;12.60;11.30;;;18.10;99.90;;;;;;5060508;28;20443;-62
2023/09/03 01:21:21;;;;;;;14.57;11.47;;;18.00;99.90;;;;;;5059415;28;20427;-63
2023/09/03 01:23:58;;;;;;;14.10;10.40;;;18.00;99.90;;;;;;5058715;28;20474;-64
2023/09/03 01:26:45;;;;;;;12.17;9.90;;;18.00;99.90;;;;;;5059284;28;20466;-66
2023/09/03 01:29:16;;;;;;;11.97;9.77;;;18.00;99.90;;;;;;5061717;28;20787;-63
2023/09/03 01:31:44;;;;;;;15.13;10.67;;;18.00;99.90;;;;;;5061667;28;20477;-63
2023/09/03 01:34:12;;;;;;;10.90;9.80;;;18.00;99.90;;;;;;5059880;28;20451;-63
2023/09/03 01:36:39;;;;;;;12.80;10.60;;;18.00;99.90;;;;;;5058425;28;20463;-63
2023/09/03 01:39:06;;;;;;;13.97;10.57;;;18.00;99.90;;;;;;5059353;28;20504;-62
2023/09/03 01:41:35;;;;;;;17.40;10.67;;;18.00;99.90;;;;;;5054254;28;20461;-61
2023/09/03 01:44:04;;;;;;;13.50;10.93;;;18.00;99.90;;;;;;5057394;28;20439;-63
2023/09/03 01:46:41;;;;;;;13.10;11.80;;;18.00;99.90;;;;;;5060398;28;20530;-64
2023/09/03 01:49:26;;;;;;;12.93;10.80;;;18.00;99.90;;;;;;5060725;28;20505;-64
2023/09/03 01:52:04;;;;;;;19.07;12.67;;;18.00;99.90;;;;;;5058860;28;20436;-63
2023/09/03 01:54:36;;;;;;;14.20;11.97;;;17.90;99.90;;;;;;5074955;28;20427;-62
2023/09/03 01:57:08;;;;;;;13.10;11.73;;;17.90;99.90;;;;;;5072306;28;20911;-62
2023/09/03 01:59:39;;;;;;;17.47;13.13;;;17.90;99.90;;;;;;5078005;28;20435;-60
2023/09/03 02:02:09;;;;;;;13.97;12.40;;;17.90;99.90;;;;;;5073887;28;20903;-63
2023/09/03 02:04:36;;;;;;;14.23;11.57;;;17.90;99.90;;;;;;5070346;28;20510;-65
2023/09/03 02:07:04;;;;;;;12.77;11.47;;;17.80;99.90;;;;;;5058000;28;20439;-62
2023/09/03 02:09:31;;;;;;;13.30;11.97;;;17.90;99.90;;;;;;5057481;28;20491;-63
2023/09/03 02:11:58;;;;;;;14.27;12.43;;;17.80;99.90;;;;;;5057486;28;20844;-62
2023/09/03 02:14:26;;;;;;;15.00;11.33;;;17.80;99.90;;;;;;5057376;28;20530;-62
2023/09/03 02:16:53;;;;;;;18.07;12.20;;;17.80;99.90;;;;;;5057880;28;20494;-62
2023/09/03 02:19:22;;;;;;;15.80;12.07;;;17.70;99.90;;;;;;5061818;28;20526;-61
2023/09/03 02:21:49;;;;;;;14.20;12.57;;;17.70;99.90;;;;;;5061856;28;20469;-62
2023/09/03 02:24:16;;;;;;;16.27;12.90;;;17.60;99.90;;;;;;5057407;28;20754;-63
2023/09/03 02:26:43;;;;;;;12.77;11.47;;;17.60;99.90;;;;;;5056799;28;20510;-64
2023/09/03 02:29:13;;;;;;;14.70;11.30;;;17.60;99.90;;;;;;5057565;28;20825;-63
2023/09/03 02:31:41;;;;;;;14.73;11.70;;;17.60;99.90;;;;;;5057405;28;20786;-62
2023/09/03 02:34:08;;;;;;;17.53;12.07;;;17.50;99.90;;;;;;5057335;28;20534;-62
2023/09/03 02:36:36;;;;;;;12.70;11.27;;;17.50;99.90;;;;;;5061448;28;20443;-61
2023/09/03 02:39:04;;;;;;;13.50;11.37;;;17.50;99.90;;;;;;5062437;28;20881;-61
2023/09/03 02:41:32;;;;;;;17.93;10.40;;;17.40;99.90;;;;;;5061162;28;20490;-62
2023/09/03 02:43:59;;;;;;;13.63;12.33;;;17.40;99.90;;;;;;5062849;28;20491;-62
2023/09/03 02:46:26;;;;;;;13.33;11.07;;;17.40;99.90;;;;;;5064110;28;20439;-63
2023/09/03 02:48:57;;;;;;;12.90;11.23;;;17.30;99.90;;;;;;5070196;28;20470;-62
2023/09/03 02:51:24;;;;;;;19.13;11.40;;;17.30;99.90;;;;;;5067524;28;20478;-60
2023/09/03 02:53:54;;;;;;;15.33;10.80;;;17.30;99.90;;;;;;5064124;28;20470;-62
2023/09/03 02:56:22;;;;;;;12.40;11.07;;;17.30;99.90;;;;;;5063709;28;20463;-62
2023/09/03 02:58:49;;;;;;;12.37;11.10;;;17.20;99.90;;;;;;5062438;28;20486;-60
2023/09/03 03:01:20;;;;;;;12.17;10.97;;;17.20;99.90;;;;;;5059832;28;20464;-60
2023/09/03 03:03:47;;;;;;;14.47;12.00;;;17.20;99.90;;;;;;5064890;28;20478;-62
2023/09/03 03:06:15;;;;;;;14.47;12.07;;;17.20;99.90;;;;;;5060937;28;20495;-62
2023/09/03 03:08:42;;;;;;;15.63;10.80;;;17.10;99.90;;;;;;5060961;28;20522;-63
2023/09/03 03:11:12;;;;;;;13.57;10.83;;;17.10;99.90;;;;;;5060812;28;20514;-62
2023/09/03 03:13:39;;;;;;;19.77;12.03;;;17.00;99.90;;;;;;5069042;28;20896;-62
2023/09/03 03:16:07;;;;;;;12.80;11.23;;;17.00;99.90;;;;;;5062382;28;20502;-61
2023/09/03 03:18:36;;;;;;;13.73;10.87;;;17.00;99.90;;;;;;5063834;28;20467;-62
2023/09/03 03:21:07;;;;;;;12.37;10.30;;;16.90;99.90;;;;;;5071698;28;20522;-62
2023/09/03 03:23:34;;;;;;;11.23;10.17;;;17.00;99.90;;;;;;5063616;28;20482;-61
2023/09/03 03:26:01;;;;;;;14.43;10.13;;;16.90;99.90;;;;;;5060456;28;20454;-63
2023/09/03 03:28:31;;;;;;;12.40;9.73;;;16.90;99.90;;;;;;5060834;28;20502;-61
2023/09/03 03:31:08;;;;;;;12.37;10.17;;;16.80;99.90;;;;;;5061983;28;20486;-63
2023/09/03 03:33:37;;;;;;;14.00;10.23;;;16.80;99.90;;;;;;5062301;28;20503;-63
2023/09/03 03:36:05;;;;;;;15.60;9.87;;;16.90;99.90;;;;;;5062144;28;20478;-62
2023/09/03 03:38:31;;;;;;;11.10;9.03;;;16.90;99.90;;;;;;5062125;28;20463;-62
2023/09/03 03:41:09;;;;;;;11.23;10.03;;;16.90;99.90;;;;;;5060954;28;20490;-59
2023/09/03 03:43:40;;;;;;;12.00;8.87;;;16.90;99.90;;;;;;5059922;28;20434;-62
2023/09/03 03:46:07;;;;;;;11.40;9.63;;;16.90;99.90;;;;;;5060306;28;20519;-62
2023/09/03 03:48:35;;;;;;;8.33;7.50;;;16.90;99.90;;;;;;5062134;28;20479;-61
2023/09/03 03:51:02;;;;;;;12.10;8.73;;;16.90;99.90;;;;;;5066294;28;20515;-61
2023/09/03 03:53:30;;;;;;;11.00;7.20;;;16.90;99.90;;;;;;5062107;28;20443;-62
2023/09/03 03:56:01;;;;;;;8.00;7.20;;;16.90;99.90;;;;;;5060405;28;20475;-61
2023/09/03 03:58:29;;;;;;;7.93;6.73;;;17.00;99.90;;;;;;5060324;28;20832;-60
2023/09/03 04:00:57;;;;;;;10.67;7.70;;;17.00;99.90;;;;;;5060114;28;20490;-62
2023/09/03 04:03:27;;;;;;;9.43;7.27;;;17.00;99.90;;;;;;5060372;28;20487;-58
2023/09/03 04:06:00;;;;;;;8.30;6.60;;;17.00;99.90;;;;;;5063722;28;20447;-59
2023/09/03 04:08:28;;;;;;;7.90;6.60;;;17.00;99.90;;;;;;5065926;28;20459;-63
2023/09/03 04:10:59;;;;;;;6.87;6.17;;;17.00;99.90;;;;;;5059551;28;20522;-60
2023/09/03 04:13:27;;;;;;;7.60;6.60;;;17.00;99.90;;;;;;5062846;28;20561;-61
2023/09/03 04:15:54;;;;;;;9.93;5.50;;;16.90;99.90;;;;;;5065644;28;20935;-62
2023/09/03 04:18:26;;;;;;;8.00;6.57;;;16.90;99.90;;;;;;5066333;28;20498;-61
2023/09/03 04:20:53;;;;;;;6.47;5.30;;;16.90;99.90;;;;;;5066315;28;20416;-61
2023/09/03 04:23:21;;;;;;;8.23;6.50;;;17.00;99.90;;;;;;5065729;28;20493;-61
2023/09/03 04:25:48;;;;;;;6.80;6.20;;;17.00;99.90;;;;;;5066748;28;20535;-62
2023/09/03 04:28:15;;;;;;;9.33;6.23;;;17.00;99.90;;;;;;5066083;28;20474;-62
2023/09/03 04:30:42;;;;;;;9.00;6.47;;;17.00;99.90;;;;;;5065986;28;20562;-60
2023/09/03 04:33:09;;;;;;;6.57;5.83;;;17.00;99.90;;;;;;5065690;28;20439;-62
2023/09/03 04:35:38;;;;;;;9.27;5.90;;;17.00;99.90;;;;;;5066517;28;20463;-62
2023/09/03 04:38:06;;;;;;;6.37;5.77;;;16.90;99.90;;;;;;5066846;28;20447;-62
2023/09/03 04:40:34;;;;;;;8.57;6.30;;;16.90;99.90;;;;;;5066030;28;20474;-60
2023/09/03 04:43:01;;;;;;;6.50;5.60;;;16.90;99.90;;;;;;5066775;28;20442;-62
2023/09/03 04:45:28;;;;;;;8.60;6.10;;;16.90;99.90;;;;;;5055973;28;20471;-62
2023/09/03 04:47:55;;;;;;;7.30;5.40;;;16.90;99.90;;;;;;5054770;28;20427;-62
2023/09/03 04:50:22;;;;;;;6.67;5.40;;;17.00;99.90;;;;;;5055263;28;20574;-61
2023/09/03 04:52:50;;;;;;;8.90;6.30;;;17.00;99.90;;;;;;5057098;28;20454;-63
2023/09/03 04:55:18;;;;;;;7.23;5.33;;;17.00;99.90;;;;;;5057747;28;20471;-57
2023/09/03 04:57:46;;;;;;;5.90;5.00;;;17.00;99.90;;;;;;5066220;28;20985;-59
2023/09/03 05:00:13;;;;;;;5.70;5.10;;;17.00;99.90;;;;;;5066100;28;20478;-61
2023/09/03 05:02:40;;;;;;;7.90;5.83;;;17.00;99.90;;;;;;5066303;28;20507;-61
2023/09/03 05:05:08;;;;;;;17.50;7.23;;;17.00;99.90;;;;;;5065658;28;20473;-61
2023/09/03 05:07:35;;;;;;;9.70;6.30;;;17.00;99.90;;;;;;5065904;28;20471;-58
2023/09/03 05:10:04;;;;;;;10.30;7.40;;;17.00;99.90;;;;;;5065996;28;20452;-57
2023/09/03 05:12:31;;;;;;;9.23;6.33;;;17.00;99.90;;;;;;5066263;28;20467;-60
2023/09/03 05:14:59;;;;;;;6.43;5.50;;;17.10;99.90;;;;;;5064906;28;20467;-63
2023/09/03 05:17:26;;;;;;;7.37;4.53;;;17.10;99.90;;;;;;5058839;28;20530;-63
2023/09/03 05:19:53;;;;;;;6.40;5.10;;;17.00;99.90;;;;;;5058620;28;20550;-61
2023/09/03 05:22:20;;;;;;;6.80;4.93;;;17.00;99.90;;;;;;5068163;28;20470;-55
2023/09/03 05:24:47;;;;;;;8.50;4.30;;;17.00;99.90;;;;;;5073241;28;20466;-63
2023/09/03 05:27:15;;;;;;;5.20;4.50;;;17.00;99.90;;;;;;5066454;28;20462;-63
2023/09/03 05:29:42;;;;;;;8.10;5.13;;;17.00;99.90;;;;;;5077732;28;20443;-61
2023/09/03 05:32:09;;;;;;;6.03;4.63;;;17.10;99.90;;;;;;5062161;28;20860;-62
2023/09/03 05:34:35;;;;;;;5.90;4.40;;;17.10;99.90;;;;;;5059531;28;20522;-61
2023/09/03 05:37:03;;;;;;;6.77;4.50;;;17.10;99.90;;;;;;5061813;28;20503;-61
2023/09/03 05:39:30;;;;;;;4.00;3.60;;;17.20;99.90;;;;;;5062695;28;20453;-61
2023/09/03 05:41:57;;;;;;;9.03;4.03;;;17.20;99.90;;;;;;5062806;28;20471;-62
2023/09/03 05:44:25;;;;;;;5.00;4.03;;;17.20;99.90;;;;;;5062736;28;20923;-63
2023/09/03 05:46:52;;;;;;;5.70;4.47;;;17.20;99.90;;;;;;5063053;28;20463;-62
2023/09/03 05:49:19;;;;;;;5.20;4.17;;;17.20;99.90;;;;;;5062824;28;20474;-61
2023/09/03 05:51:46;;;;;;;3.93;3.50;;;17.30;99.90;;;;;;5062518;28;20509;-58
2023/09/03 05:54:12;;;;;;;6.67;3.63;;;17.30;99.90;;;;;;5062376;28;20473;-62
2023/09/03 05:56:39;;;;;;;5.60;4.13;;;17.30;99.90;;;;;;5062505;28;20535;-62
2023/09/03 05:59:08;;;;;;;6.63;3.93;;;17.30;99.90;;;;;;5063102;28;20559;-63
2023/09/03 06:01:37;;;;;;;4.30;3.43;;;17.40;99.90;;;;;;5068202;28;20493;-62
2023/09/03 06:04:09;;;;;;;5.03;3.53;;;17.50;99.90;;;;;;5072359;28;20482;-61
2023/09/03 06:06:37;;;;;;;5.47;3.90;;;17.50;99.90;;;;;;5057740;28;20423;-62
2023/09/03 06:09:05;;;;;;;5.30;3.60;;;17.60;99.90;;;;;;5057196;28;20453;-62
2023/09/03 06:11:33;;;;;;;8.27;4.67;;;17.70;99.90;;;;;;5057197;28;20479;-63
2023/09/03 06:14:00;;;;;;;6.87;4.43;;;17.70;99.90;;;;;;5058785;28;20539;-61
2023/09/03 06:16:26;;;;;;;5.83;3.80;;;17.70;99.90;;;;;;5060822;28;20522;-62
2023/09/03 06:18:55;;;;;;;6.37;3.83;;;17.80;99.90;;;;;;5063576;28;20439;-59
2023/09/03 06:21:22;;;;;;;8.70;3.73;;;17.80;99.90;;;;;;5068687;28;20464;-61
2023/09/03 06:23:49;;;;;;;7.30;3.33;;;17.90;99.90;;;;;;5068142;28;20443;-61
2023/09/03 06:26:15;;;;;;;5.87;3.40;;;17.90;99.90;;;;;;5069188;28;20502;-60
2023/09/03 06:28:42;;;;;;;5.17;4.30;;;18.00;99.90;;;;;;5068138;28;20431;-63
2023/09/03 06:31:09;;;;;;;3.30;2.90;;;18.00;99.90;;;;;;5067292;28;20569;-61
2023/09/03 06:33:36;;;;;;;6.03;3.20;;;18.10;99.90;;;;;;5069138;28;20443;-62
2023/09/03 06:36:04;;;;;;;3.63;3.10;;;18.10;99.90;;;;;;5068075;28;20435;-63
2023/09/03 06:38:31;;;;;;;8.13;3.20;;;18.10;99.90;;;;;;5067157;28;21000;-60
2023/09/03 06:40:58;;;;;;;4.30;3.40;;;18.10;99.90;;;;;;5068296;28;20490;-62
2023/09/03 06:43:25;;;;;;;6.07;3.60;;;18.10;99.90;;;;;;5068698;28;20471;-60
2023/09/03 06:45:52;;;;;;;5.27;3.73;;;18.10;99.90;;;;;;5057472;28;20485;-60
2023/09/03 06:48:19;;;;;;;8.03;4.10;;;18.00;99.90;;;;;;5056666;28;20522;-61
2023/09/03 06:50:45;;;;;;;4.43;2.83;;;18.00;99.90;;;;;;5057126;28;20428;-62
2023/09/03 06:53:14;;;;;;;8.43;3.57;;;18.10;99.90;;;;;;5059432;28;20534;-62
2023/09/03 06:55:44;;;;;;;6.63;3.50;;;18.10;99.90;;;;;;5062567;28;20458;-62
2023/09/03 06:58:11;;;;;;;8.00;3.90;;;18.10;99.90;;;;;;5067366;28;20438;-60
2023/09/03 07:00:38;;;;;;;5.57;3.87;;;18.20;99.90;;;;;;5067413;28;20479;-60
2023/09/03 07:03:05;;;;;;;6.63;4.10;;;18.20;99.90;;;;;;5067163;28;20443;-58
2023/09/03 07:05:32;;;;;;;5.30;3.60;;;18.20;99.90;;;;;;5069366;28;20498;-61
2023/09/03 07:07:59;;;;;;;6.73;3.90;;;18.20;99.90;;;;;;5067069;28;20478;-61
2023/09/03 07:10:27;;;;;;;7.07;4.30;;;18.20;99.90;;;;;;5067224;28;20455;-62
2023/09/03 07:12:55;;;;;;;7.13;3.70;;;18.30;99.90;;;;;;5066826;28;20474;-61
2023/09/03 07:15:22;;;;;;;5.67;3.17;;;18.30;99.90;;;;;;5067426;28;20452;-62
2023/09/03 07:17:48;;;;;;;5.97;3.83;;;18.40;99.90;;;;;;5067429;28;20428;-61
2023/09/03 07:20:15;;;;;;;7.97;3.33;;;18.40;99.90;;;;;;5068406;28;20462;-62
2023/09/03 07:22:42;;;;;;;3.93;3.20;;;18.50;99.90;;;;;;5066420;28;20979;-58
2023/09/03 07:25:10;;;;;;;6.13;3.60;;;18.50;99.90;;;;;;5067083;28;20443;-61
2023/09/03 07:27:39;;;;;;;6.40;3.53;;;18.60;99.90;;;;;;5067448;28;20467;-61
2023/09/03 07:30:07;;;;;;;8.37;4.40;;;18.80;99.90;;;;;;5065702;28;20443;-61
2023/09/03 07:32:36;;;;;;;6.80;4.13;;;18.90;99.90;;;;;;5066251;28;20873;-61
2023/09/03 07:35:04;;;;;;;5.57;2.73;;;19.10;99.90;;;;;;5066171;28;20447;-61
2023/09/03 07:37:31;;;;;;;6.10;2.70;;;19.20;99.90;;;;;;5065000;28;20455;-61
2023/09/03 07:39:58;;;;;;;6.93;3.00;;;19.20;99.90;;;;;;5070285;28;20424;-60
2023/09/03 07:42:25;;;;;;;3.20;2.10;;;19.20;99.90;;;;;;5071757;28;20505;-59
2023/09/03 07:44:53;;;;;;;3.10;2.63;;;19.30;99.90;;;;;;5065994;28;20475;-61
2023/09/03 07:47:20;;;;;;;6.47;2.37;;;19.30;99.90;;;;;;5064757;28;20482;-61
2023/09/03 07:49:47;;;;;;;3.50;2.53;;;19.30;99.90;;;;;;5063658;28;20440;-58
2023/09/03 07:52:14;;;;;;;5.67;4.43;;;19.30;99.90;;;;;;5064277;28;20983;-60
2023/09/03 07:54:41;;;;;;;7.50;2.70;;;19.50;99.90;;;;;;5064384;28;20482;-59
2023/09/03 07:57:08;;;;;;;4.30;2.70;;;19.60;99.90;;;;;;5064671;28;20501;-62
2023/09/03 07:59:35;;;;;;;2.80;2.13;;;19.70;99.90;;;;;;5064008;28;20526;-61
2023/09/03 08:02:04;;;;;;;8.07;3.30;;;20.00;99.90;;;;;;5055437;28;20467;-62
2023/09/03 08:04:31;;;;;;;3.80;2.20;;;20.20;99.90;;;;;;5055110;28;20538;-62
2023/09/03 08:06:58;;;;;;;2.43;2.23;;;20.40;99.90;;;;;;5055616;28;20486;-62
2023/09/03 08:09:29;;;;;;;4.33;2.30;;;20.50;99.90;;;;;;5055893;28;20439;-61
2023/09/03 08:11:56;;;;;;;3.57;2.00;;;20.60;99.90;;;;;;5061001;28;20551;-62
2023/09/03 08:14:24;;;;;;;2.70;2.50;;;20.70;99.90;;;;;;5059919;28;20446;-62
2023/09/03 08:16:51;;;;;;;3.23;2.60;;;20.80;99.90;;;;;;5060906;28;20477;-62
2023/09/03 08:19:19;;;;;;;2.73;2.20;;;20.90;99.90;;;;;;5058481;28;20435;-61
2023/09/03 08:21:48;;;;;;;3.87;2.33;;;21.10;99.90;;;;;;5060063;28;20495;-61
2023/09/03 08:24:15;;;;;;;1.97;1.87;;;21.40;99.90;;;;;;5058705;28;20526;-61
2023/09/03 08:26:42;;;;;;;3.10;2.80;;;21.70;99.90;;;;;;5059356;28;20477;-60
2023/09/03 08:29:10;;;;;;;2.83;2.20;;;21.90;99.90;;;;;;5060655;28;20756;-62
2023/09/03 08:31:39;;;;;;;3.17;2.17;;;22.20;99.90;;;;;;5059864;28;20479;-61
2023/09/03 08:34:06;;;;;;;4.23;2.20;;;22.30;99.90;;;;;;5065498;28;20523;-65
2023/09/03 08:36:34;;;;;;;4.30;2.07;;;22.50;99.90;;;;;;5059849;28;20439;-62
2023/09/03 08:39:02;;;;;;;5.37;2.00;;;22.50;99.90;;;;;;5057769;28;20499;-63
2023/09/03 08:41:31;;;;;;;2.90;2.03;;;22.60;99.90;;;;;;5054739;28;20451;-62
2023/09/03 08:44:03;;;;;;;7.53;2.20;;;22.70;99.90;;;;;;5054465;28;20479;-59
2023/09/03 08:46:32;;;;;;;3.00;1.93;;;22.70;99.90;;;;;;5056707;28;20895;-60
2023/09/03 08:49:00;;;;;;;2.17;1.97;;;22.70;99.90;;;;;;5059564;28;20454;-61
2023/09/03 08:51:28;;;;;;;4.73;2.10;;;22.60;99.90;;;;;;5054910;28;20514;-61
2023/09/03 08:53:59;;;;;;;1.87;1.77;;;22.50;99.90;;;;;;5054720;28;20526;-63
2023/09/03 08:56:26;;;;;;;3.87;2.00;;;22.40;99.90;;;;;;5054630;28;20910;-63
2023/09/03 08:58:54;;;;;;;4.07;2.10;;;22.40;99.90;;;;;;5054572;28;20474;-62
2023/09/03 09:01:22;;;;;;;5.40;2.27;;;22.40;99.90;;;;;;5058148;28;20470;-62
2023/09/03 09:03:51;;;;;;;3.30;1.80;;;22.40;99.90;;;;;;5065881;28;20490;-60
2023/09/03 09:06:20;;;;;;;3.53;2.20;;;22.50;99.90;;;;;;5062844;28;20469;-59
2023/09/03 09:08:48;;;;;;;2.50;1.83;;;23.00;99.90;;;;;;5064583;28;20503;-59
2023/09/03 09:11:19;;;;;;;3.13;1.87;;;23.40;99.90;;;;;;5062993;28;20845;-61
2023/09/03 09:13:55;;;;;;;1.63;1.50;;;23.80;99.90;;;;;;5061984;28;20471;-63
2023/09/03 09:16:22;;;;;;;1.87;1.70;;;24.00;99.90;;;;;;5064484;28;20431;-64
2023/09/03 09:18:49;;;;;;;2.00;1.80;;;24.00;99.90;;;;;;5063315;28;20471;-63
2023/09/03 09:21:17;;;;;;;3.93;2.33;;;23.90;99.90;;;;;;5060311;28;20473;-61
2023/09/03 09:23:44;;;;;;;3.20;2.20;;;24.00;99.90;;;;;;5060381;28;20551;-59
2023/09/03 09:26:22;;;;;;;3.60;2.10;;;23.90;99.90;;;;;;5061368;28;20526;-61
2023/09/03 09:28:59;;;;;;;4.33;2.00;;;24.00;99.90;;;;;;5064470;28;20561;-61
2023/09/03 09:31:33;;;;;;;4.93;1.93;;;24.00;99.90;;;;;;5063349;28;20443;-62
2023/09/03 09:34:02;;;;;;;3.17;2.07;;;23.80;99.90;;;;;;5062933;28;20513;-63
2023/09/03 09:36:30;;;;;;;4.33;1.87;;;23.70;99.90;;;;;;5070253;28;20466;-61
2023/09/03 09:39:05;;;;;;;2.70;1.50;;;23.80;99.90;;;;;;5064562;28;20477;-61
2023/09/03 09:41:37;;;;;;;2.50;1.57;;;23.60;99.90;;;;;;5061242;28;20927;-63
2023/09/03 09:44:09;;;;;;;4.27;2.33;;;23.80;99.90;;;;;;5061348;28;20470;-62
2023/09/03 09:46:36;;;;;;;3.87;1.73;;;24.20;99.90;;;;;;5060045;28;20431;-60
2023/09/03 09:49:03;;;;;;;4.03;2.23;;;24.20;99.90;;;;;;5062578;28;20527;-61
2023/09/03 09:51:31;;;;;;;2.07;1.63;;;24.50;99.90;;;;;;5066551;28;20911;-62
2023/09/03 09:53:59;;;;;;;4.03;1.70;;;24.50;99.90;;;;;;5064876;28;20515;-62
2023/09/03 09:56:27;;;;;;;2.27;1.40;;;24.70;99.90;;;;;;5060907;28;20531;-60
2023/09/03 09:58:57;;;;;;;1.47;1.30;;;25.30;99.90;;;;;;5057530;28;20463;-62
2023/09/03 10:01:27;;;;;;;3.50;1.70;;;25.40;99.90;;;;;;5057261;28;20443;-62
2023/09/03 10:03:55;;;;;;;2.50;2.17;;;25.30;99.20;;;;;;5057481;28;20550;-61
2023/09/03 10:06:24;;;;;;;1.87;1.47;;;25.50;98.70;;;;;;5059213;28;20526;-62
2023/09/03 10:08:52;;;;;;;3.20;1.70;;;25.90;98.10;;;;;;5058351;28;20447;-61
2023/09/03 10:11:19;;;;;;;2.80;1.87;;;26.20;96.20;;;;;;5059092;28;20460;-59
2023/09/03 10:13:48;;;;;;;2.83;1.70;;;25.90;95.60;;;;;;5060524;28;20562;-61
2023/09/03 10:16:19;;;;;;;3.57;1.50;;;25.90;95.70;;;;;;5060206;28;20514;-62
2023/09/03 10:18:48;;;;;;;1.80;1.60;;;26.20;95.20;;;;;;5062424;28;20427;-62
2023/09/03 10:21:20;;;;;;;4.43;2.03;;;26.30;94.20;;;;;;5061532;28;20545;-62
2023/09/03 10:23:50;;;;;;;3.03;2.00;;;26.20;93.40;;;;;;5059207;28;20510;-61
2023/09/03 10:26:21;;;;;;;2.20;1.60;;;26.10;94.40;;;;;;5057962;28;20447;-61
2023/09/03 10:28:51;;;;;;;2.50;1.40;;;26.00;94.70;;;;;;5058759;28;20459;-61
2023/09/03 10:31:21;;;;;;;2.20;1.43;;;25.90;94.60;;;;;;5058809;28;20535;-61
2023/09/03 10:33:48;;;;;;;2.57;1.30;;;25.90;93.00;;;;;;5066367;28;20499;-62
2023/09/03 10:36:17;;;;;;;2.20;1.67;;;26.00;92.40;;;;;;5059681;28;20522;-62
2023/09/03 10:38:44;;;;;;;2.30;1.70;;;26.00;92.60;;;;;;5060111;28;20443;-62
2023/09/03 10:41:19;;;;;;;2.00;1.47;;;26.20;92.30;;;;;;5060749;28;20546;-61
2023/09/03 10:43:46;;;;;;;1.97;1.77;;;26.00;91.40;;;;;;5065309;28;20794;-60
2023/09/03 10:46:14;;;;;;;2.83;1.80;;;25.70;91.00;;;;;;5059893;28;20499;-63
2023/09/03 10:48:51;;;;;;;3.83;1.50;;;25.50;90.80;;;;;;5061974;28;20511;-62
2023/09/03 10:51:32;;;;;;;1.63;1.43;;;25.20;90.30;;;;;;5061328;28;20463;-62
2023/09/03 10:54:18;;;;;;;6.33;2.00;;;25.00;91.40;;;;;;5058931;28;20478;-62
2023/09/03 10:57:18;;;;;;;2.40;1.80;;;25.10;92.60;;;;;;5067766;28;20471;-58
2023/09/03 11:00:16;;;;;;;2.23;1.70;;;25.00;92.70;;;;;;5031261;28;20446;-64
2023/09/03 11:02:44;;;;;;;2.50;1.63;;;25.10;93.00;;;;;;5054466;28;20443;-63
2023/09/03 11:05:19;;;;;;;2.70;1.57;;;25.20;91.20;;;;;;5060713;28;20454;-63
2023/09/03 11:07:47;;;;;;;2.30;1.57;;;25.40;91.10;;;;;;5059230;28;20441;-58
2023/09/03 11:10:42;;;;;;;2.30;1.80;;;25.40;90.20;;;;;;5058940;28;20478;-64
2023/09/03 11:13:13;;;;;;;2.10;1.90;;;25.20;90.70;;;;;;5057179;28;20478;-63
2023/09/03 11:16:01;;;;;;;3.37;1.60;;;25.20;91.00;;;;;;5058062;28;20470;-63
2023/09/03 11:18:30;;;;;;;3.67;2.17;;;25.20;91.30;;;;;;5052323;28;20444;-62
2023/09/03 11:20:59;;;;;;;3.43;1.70;;;25.20;89.90;;;;;;5056591;28;20467;-59
2023/09/03 11:23:29;;;;;;;3.40;1.70;;;25.00;89.40;;;;;;5056406;28;20435;-59
2023/09/03 11:25:56;;;;;;;1.70;1.43;;;24.90;90.40;;;;;;5056200;28;20467;-59
2023/09/03 11:28:23;;;;;;;1.70;1.60;;;24.60;90.60;;;;;;5059622;28;20427;-62
2023/09/03 11:30:58;;;;;;;4.30;2.47;;;24.50;90.60;;;;;;5060158;28;20934;-62
2023/09/03 11:33:26;;;;;;;3.10;2.13;;;24.30;91.50;;;;;;5055637;28;20561;-63
2023/09/03 11:35:54;;;;;;;3.33;1.77;;;24.20;91.10;;;;;;5058130;28;20965;-62
2023/09/03 11:38:25;;;;;;;1.90;1.50;;;24.10;91.70;;;;;;5060153;28;20432;-62
2023/09/03 11:40:55;;;;;;;2.10;1.60;;;23.90;92.00;;;;;;5060309;28;20461;-62
2023/09/03 11:43:22;;;;;;;3.90;2.00;;;23.70;92.50;;;;;;5060280;28;20435;-63
2023/09/03 11:45:49;;;;;;;2.07;1.50;;;23.60;93.70;;;;;;5062340;28;20450;-62
2023/09/03 11:48:23;;;;;;;5.03;1.80;;;23.60;94.30;;;;;;5057952;28;20528;-63
2023/09/03 11:50:51;;;;;;;3.00;1.50;;;23.70;94.70;;;;;;5055320;28;20514;-63
2023/09/03 11:53:18;;;;;;;6.83;4.90;;;23.70;94.40;;;;;;5055528;28;20586;-58
2023/09/03 11:55:49;;;;;;;3.40;2.20;;;23.60;93.50;;;;;;5055166;28;20914;-65
2023/09/03 11:58:19;;;;;;;3.87;2.13;;;23.60;93.70;;;;;;5057786;28;20525;-62
2023/09/03 12:00:47;;;;;;;4.13;1.63;;;23.60;93.90;;;;;;5056086;28;20829;-63
2023/09/03 12:03:14;;;;;;;2.23;1.40;;;23.60;94.30;;;;;;5057504;28;20606;-63
2023/09/03 12:05:41;;;;;;;2.97;1.90;;;23.70;93.90;;;;;;5057945;28;20439;-63
2023/09/03 12:08:08;;;;;;;2.13;1.53;;;23.80;94.50;;;;;;5057489;28;20499;-63
2023/09/03 12:10:35;;;;;;;1.57;1.47;;;23.80;93.60;;;;;;5060300;28;20450;-59
2023/09/03 12:13:07;;;;;;;2.20;1.80;;;23.80;93.10;;;;;;5060022;28;20529;-59
2023/09/03 12:15:34;;;;;;;2.23;1.63;;;23.80;94.30;;;;;;5075461;28;20457;-54
2023/09/03 12:18:08;;;;;;;1.90;1.67;;;23.80;94.00;;;;;;5067232;28;20468;-62
2023/09/03 12:20:37;;;;;;;2.20;1.70;;;23.90;93.90;;;;;;5063696;28;20455;-59
2023/09/03 12:23:12;;;;;;;1.50;1.33;;;24.00;92.60;;;;;;5059024;28;20467;-62
2023/09/03 12:25:40;;;;;;;1.60;1.43;;;24.00;91.90;;;;;;5061230;28;20506;-61
2023/09/03 12:28:09;;;;;;;2.80;1.47;;;23.90;92.10;;;;;;5061344;28;20467;-60
2023/09/03 12:30:56;;;;;;;3.10;1.80;;;23.80;91.50;;;;;;5065945;28;20760;-59
2023/09/03 12:33:25;;;;;;;3.50;1.70;;;23.80;92.20;;;;;;5063175;28;20808;-60
2023/09/03 12:36:08;;;;;;;2.33;2.13;;;23.70;92.70;;;;;;5069308;28;20453;-61
2023/09/03 12:38:55;;;;;;;2.70;2.10;;;23.50;93.20;;;;;;5055000;28;20455;-61
2023/09/03 12:41:23;;;;;;;3.03;1.70;;;23.40;93.90;;;;;;5057821;28;20491;-60
2023/09/03 12:43:52;;;;;;;3.07;1.90;;;23.40;94.40;;;;;;5058003;28;20495;-61
2023/09/03 12:46:19;;;;;;;3.83;1.47;;;23.50;94.40;;;;;;5059586;28;20450;-60
2023/09/03 12:48:46;;;;;;;2.50;1.60;;;23.50;94.00;;;;;;5063614;28;20467;-59
2023/09/03 12:51:15;;;;;;;3.77;2.13;;;23.50;94.20;;;;;;5063952;28;20427;-60